createdAt,value
2018-06-19T00:08:54.180Z,20.5
2018-06-19T00:18:53.404Z,20.5
2018-06-19T00:28:52.639Z,20.5
2018-06-19T00:38:51.877Z,20.6
2018-06-19T00:48:51.109Z,20.6
2018-06-19T00:58:50.347Z,20.6
2018-06-19T01:08:49.580Z,20.6
2018-06-19T01:18:48.815Z,20.6
2018-06-19T01:28:48.061Z,20.5
2018-06-19T01:38:47.292Z,20.6
2018-06-19T01:48:46.528Z,20.5
2018-06-19T01:58:45.760Z,20.5
2018-06-19T02:08:45.039Z,20.4
2018-06-19T02:18:44.221Z,20.4
2018-06-19T02:28:43.457Z,20.4
2018-06-19T02:38:42.695Z,20.3
2018-06-19T02:48:41.926Z,20.2
2018-06-19T02:58:41.162Z,20.1
2018-06-19T03:08:40.405Z,19.9
2018-06-19T03:18:39.634Z,19.9
2018-06-19T03:28:38.878Z,20
2018-06-19T03:38:38.104Z,20.1
2018-06-19T03:48:37.340Z,20.1
2018-06-19T03:58:36.576Z,20.3
2018-06-19T04:08:35.812Z,20.3
2018-06-19T04:18:35.049Z,20.4
2018-06-19T04:28:34.384Z,20.6
2018-06-19T04:38:33.529Z,20.7
2018-06-19T04:48:32.758Z,20.8
2018-06-19T04:58:31.991Z,21.1
2018-06-19T05:08:31.225Z,21.3
2018-06-19T05:18:30.462Z,21.5
2018-06-19T05:28:29.696Z,21.7
2018-06-19T05:38:28.939Z,22
2018-06-19T05:48:28.166Z,22.3
2018-06-19T05:58:27.400Z,22.4
2018-06-19T06:08:26.642Z,22.6
2018-06-19T06:18:25.884Z,22.9
2018-06-19T06:28:25.107Z,23.2
2018-06-19T06:38:24.341Z,23.4
2018-06-19T06:48:23.576Z,23.5
2018-06-19T06:58:22.815Z,23.8
2018-06-19T07:08:22.051Z,24
2018-06-19T07:18:21.287Z,24.5
2018-06-19T07:28:20.516Z,24.7
2018-06-19T07:38:19.779Z,24.6
2018-06-19T07:48:19.038Z,24.7
2018-06-19T07:58:18.244Z,25
2018-06-19T08:08:17.457Z,24.7
2018-06-19T08:18:16.708Z,24.7
2018-06-19T08:28:15.927Z,25.1
2018-06-19T08:38:15.162Z,24.8
2018-06-19T08:48:14.397Z,25.3
2018-06-19T08:58:13.633Z,25.4
2018-06-19T09:08:12.868Z,25.3
2018-06-19T09:18:12.107Z,25.3
2018-06-19T09:28:11.342Z,25.3
2018-06-19T09:38:10.575Z,25.3
2018-06-19T09:48:09.916Z,25.4
2018-06-19T09:58:09.044Z,25.3
2018-06-19T10:08:08.280Z,25.4
2018-06-19T10:18:07.518Z,25.7
2018-06-19T10:28:06.751Z,25.6
2018-06-19T10:38:05.988Z,25.6
2018-06-19T10:48:05.222Z,25.6
2018-06-19T10:58:04.461Z,25.6
2018-06-19T11:08:03.694Z,25.5
2018-06-19T11:18:02.932Z,25.6
2018-06-19T11:28:02.165Z,25.6
2018-06-19T11:38:01.407Z,25.8
2018-06-19T11:48:00.635Z,25.6
2018-06-19T11:57:59.872Z,25.6
2018-06-19T12:07:59.105Z,25.6
2018-06-19T12:17:58.341Z,25.9
2018-06-19T12:27:57.584Z,26.3
2018-06-19T12:37:56.813Z,26
2018-06-19T12:47:56.049Z,25.9
2018-06-19T12:57:55.284Z,26.1
2018-06-19T13:07:54.520Z,26.7
2018-06-19T13:17:53.809Z,26.9
2018-06-19T13:27:52.990Z,26.9
2018-06-19T13:37:52.235Z,26.1
2018-06-19T13:47:51.465Z,25.8
2018-06-19T13:57:50.698Z,26.4
2018-06-19T14:07:50.029Z,26.2
2018-06-19T14:17:49.168Z,25
2018-06-19T14:27:48.408Z,24.6
2018-06-19T14:37:47.642Z,24.8
2018-06-19T14:47:46.882Z,24.8
2018-06-19T14:57:46.115Z,24.9
2018-06-19T15:07:45.346Z,24.9
2018-06-19T15:17:44.583Z,24.8
2018-06-19T15:27:43.819Z,24.9
2018-06-19T15:37:43.116Z,24.8
2018-06-19T15:47:42.291Z,24.6
2018-06-19T15:57:41.529Z,24.6
2018-06-19T16:07:40.772Z,24.6
2018-06-19T16:17:40.002Z,24.6
2018-06-19T16:27:39.281Z,24.5
2018-06-19T16:37:38.480Z,24.6
2018-06-19T16:47:37.718Z,24.6
2018-06-19T16:57:36.963Z,24.5
2018-06-19T17:07:36.198Z,24.4
2018-06-19T17:17:35.438Z,24.6
2018-06-19T17:27:34.679Z,24.6
2018-06-19T17:37:33.915Z,24.6
2018-06-19T17:47:33.158Z,24.6
2018-06-19T17:57:32.392Z,24.6
2018-06-19T18:07:31.631Z,24.4
2018-06-19T18:17:30.871Z,24.3
2018-06-19T18:27:30.111Z,24.3
2018-06-19T18:37:29.350Z,24.1
2018-06-19T18:47:28.594Z,23.9
2018-06-19T18:57:27.830Z,23.9
2018-06-19T19:07:27.065Z,23.5
2018-06-19T19:17:26.302Z,23.3
2018-06-19T19:27:25.541Z,23.3
2018-06-19T19:37:24.779Z,23.1
2018-06-19T19:47:24.017Z,23.1
2018-06-19T19:57:23.253Z,23.2
2018-06-19T20:07:22.499Z,23.3
2018-06-19T20:17:21.731Z,23.3
2018-06-19T20:27:20.972Z,23.4
2018-06-19T20:37:20.210Z,23.4
2018-06-19T20:47:19.446Z,23.4
2018-06-19T20:57:18.679Z,23.3
2018-06-19T21:07:17.917Z,23.3
2018-06-19T21:17:17.153Z,23.2
2018-06-19T21:27:16.394Z,23.1
2018-06-19T21:37:15.633Z,23.1
2018-06-19T21:47:14.867Z,23
2018-06-19T21:57:14.104Z,22.9
2018-06-19T22:07:13.343Z,22.8
2018-06-19T22:17:12.581Z,22.8
2018-06-19T22:27:11.851Z,22.7
2018-06-19T22:37:11.056Z,22.6
2018-06-19T22:47:10.297Z,22.6
2018-06-19T22:57:09.536Z,22.4
2018-06-19T23:07:08.776Z,22.4
2018-06-19T23:17:08.014Z,22.3
2018-06-19T23:27:07.243Z,22.2
2018-06-19T23:37:06.479Z,22.1
2018-06-19T23:47:05.714Z,22
2018-06-19T23:57:04.951Z,21.9
